Time;durP1;ratioP1;P1;durP2;ratioP2;P2;SDS_P1;SDS_P2;PMS_P1;PMS_P2;Temp;Humidity;BMP_temperature;BMP_pressure;BME280_temperature;BME280_humidity;BME280_pressure;Samples;Min_cycle;Max_cycle;Signal;HPM_P1;HPM_P2
2021/11/20 00:01:32;;;;;;;49.83;29.92;;;6.40;85.60;;;4.32;99.12;97312.59;4935156;28;20040;-65
2021/11/20 00:04:01;;;;;;;51.60;30.70;;;6.40;85.60;;;4.35;99.05;97316.75;4923704;29;20048;-65
2021/11/20 00:06:31;;;;;;;56.42;31.92;;;6.40;85.50;;;4.35;99.45;97312.34;4934755;28;20119;-66
2021/11/20 00:08:58;;;;;;;86.40;29.77;;;6.40;85.40;;;4.36;99.24;97321.84;4921690;28;20184;-65
2021/11/20 00:11:26;;;;;;;49.15;29.15;;;6.40;85.40;;;4.37;99.69;97320.06;4936899;28;20103;-66
2021/11/20 00:13:52;;;;;;;49.83;31.23;;;6.40;85.60;;;4.39;99.85;97328.56;4952769;28;20031;-64
2021/11/20 00:16:20;;;;;;;54.28;29.42;;;6.40;85.60;;;4.35;99.02;97321.94;4941479;28;20083;-65
2021/11/20 00:18:46;;;;;;;58.53;30.98;;;6.40;85.60;;;4.35;98.90;97311.53;4935734;28;20036;-65
2021/11/20 00:21:17;;;;;;;57.08;30.63;;;6.30;85.80;;;4.30;99.56;97319.72;4933540;28;20036;-65
2021/11/20 00:23:46;;;;;;;;;;;6.20;85.70;;;4.23;100.00;97316.75;4920777;29;20046;-65
2021/11/20 00:26:14;;;;;;;59.00;29.45;;;6.10;86.10;;;4.15;98.81;97306.09;4937686;28;19937;-64
2021/11/20 00:31:24;;;;;;;64.57;31.20;;;5.90;86.80;;;4.12;98.94;97311.56;4933445;28;20385;-65
2021/11/20 00:33:49;;;;;;;58.58;29.00;;;6.00;86.70;;;4.09;100.00;97311.78;4932866;28;20043;-65
2021/11/20 00:36:15;;;;;;;61.22;29.92;;;6.00;86.80;;;4.10;99.89;97303.03;4902623;29;20054;-65
2021/11/20 00:38:42;;;;;;;70.72;31.65;;;6.00;86.80;;;4.08;99.82;97314.50;4951597;28;20035;-65
2021/11/20 00:41:12;;;;;;;80.00;30.42;;;5.90;86.90;;;4.02;99.85;97304.56;4931955;28;20359;-65
2021/11/20 00:43:38;;;;;;;74.85;30.85;;;5.80;87.30;;;4.01;100.00;97311.53;4912673;29;20043;-65
2021/11/20 00:46:04;;;;;;;81.45;31.20;;;5.80;87.40;;;3.99;99.63;97316.03;4922385;28;20529;-65
2021/11/20 00:48:30;;;;;;;70.00;30.83;;;5.70;87.40;;;3.95;99.88;97317.22;4949441;28;20047;-65
2021/11/20 00:51:04;;;;;;;82.25;33.40;;;5.80;87.70;;;3.91;100.00;97315.81;4949227;28;20043;-65
2021/11/20 00:53:30;;;;;;;88.60;32.60;;;5.60;88.10;;;3.87;100.00;97312.63;4920149;28;20055;-65
2021/11/20 00:55:56;;;;;;;81.95;32.72;;;5.70;87.80;;;3.83;100.00;97311.16;4948344;28;20035;-65
2021/11/20 00:58:22;;;;;;;76.05;32.67;;;5.60;88.30;;;3.82;100.00;97313.88;4903747;29;20054;-65
2021/11/20 01:00:52;;;;;;;69.22;31.17;;;5.60;88.30;;;3.84;100.00;97309.41;4948133;28;20036;-65
2021/11/20 01:03:18;;;;;;;70.53;31.73;;;5.70;88.00;;;3.84;100.00;97318.03;4916672;28;20091;-65
2021/11/20 01:05:44;;;;;;;73.68;31.92;;;5.70;87.80;;;3.83;100.00;97312.94;4928151;28;20050;-65
2021/11/20 01:08:11;;;;;;;85.22;32.03;;;5.70;87.70;;;3.84;100.00;97312.00;4952845;28;20082;-65
2021/11/20 01:10:40;;;;;;;69.55;31.17;;;5.70;87.60;;;3.81;100.00;97317.44;4935591;28;20122;-65
2021/11/20 01:13:06;;;;;;;77.75;31.08;;;5.60;87.70;;;3.81;100.00;97307.84;4891165;28;20503;-65
2021/11/20 01:15:43;;;;;;;78.00;30.17;;;5.60;87.60;;;3.81;100.00;97307.03;4921885;28;20051;-65
2021/11/20 01:18:09;;;;;;;72.18;30.33;;;5.60;87.90;;;3.77;100.00;97295.19;4927033;28;20035;-65
2021/11/20 01:20:35;;;;;;;73.03;30.52;;;5.60;88.10;;;3.79;100.00;97293.31;4933927;28;20027;-65
2021/11/20 01:23:01;;;;;;;64.55;30.17;;;5.60;87.90;;;3.76;100.00;97291.78;4916906;29;20111;-64
2021/11/20 01:25:27;;;;;;;75.00;31.50;;;5.60;88.10;;;3.76;100.00;97296.16;4922960;28;20043;-64
2021/11/20 01:27:53;;;;;;;75.55;29.58;;;5.50;88.00;;;3.73;100.00;97288.59;4950773;28;20086;-65
2021/11/20 01:30:19;;;;;;;69.82;29.00;;;5.50;88.10;;;3.73;100.00;97288.59;4950900;28;20534;-66
2021/11/20 01:32:45;;;;;;;81.03;30.30;;;5.50;88.20;;;3.69;100.00;97278.41;4947664;28;20135;-66
2021/11/20 01:35:11;;;;;;;68.15;29.48;;;5.40;88.20;;;3.67;100.00;97276.88;4916025;28;20555;-66
2021/11/20 01:37:38;;;;;;;78.30;29.85;;;5.40;88.30;;;3.62;100.00;97276.38;4927038;28;20039;-65
2021/11/20 01:40:08;;;;;;;76.78;30.17;;;5.40;88.60;;;3.61;100.00;97267.75;4947491;28;20044;-66
2021/11/20 01:42:35;;;;;;;69.10;27.40;;;5.30;88.60;;;3.59;100.00;97267.03;4930933;28;20113;-65
2021/11/20 01:45:34;;;;;;;72.43;27.70;;;5.30;88.60;;;3.56;100.00;97266.44;4948918;28;20356;-66
2021/11/20 01:48:49;;;;;;;77.80;26.52;;;5.20;88.80;;;3.51;100.00;97264.19;4936108;28;20062;-65
2021/11/20 01:51:38;;;;;;;72.53;26.02;;;5.10;89.00;;;3.47;100.00;97262.78;4951739;28;20035;-66
2021/11/20 01:54:08;;;;;;;72.97;26.75;;;5.10;89.20;;;3.45;100.00;97261.25;4957820;28;20046;-66
2021/11/20 01:57:02;;;;;;;64.80;26.77;;;5.10;88.90;;;3.41;100.00;97268.44;4950205;28;20035;-65
2021/11/20 01:59:41;;;;;;;85.03;27.77;;;5.00;89.20;;;3.36;100.00;97257.53;4920046;28;20051;-65
2021/11/20 02:02:31;;;;;;;71.70;28.67;;;5.00;89.40;;;3.33;100.00;97255.19;4918836;29;20054;-65
2021/11/20 02:05:04;;;;;;;69.70;26.77;;;5.00;89.50;;;3.32;100.00;97254.34;4951672;28;20047;-65
2021/11/20 02:08:01;;;;;;;66.07;27.20;;;5.00;89.20;;;3.32;100.00;97248.31;4944674;28;20047;-65
2021/11/20 02:10:36;;;;;;;63.95;26.83;;;5.00;89.20;;;3.29;100.00;97240.75;4950711;28;20058;-65
2021/11/20 02:13:13;;;;;;;60.58;25.23;;;5.00;89.10;;;3.30;100.00;97243.25;4919332;29;20039;-65
2021/11/20 02:16:06;;;;;;;65.78;25.92;;;5.00;89.20;;;3.30;100.00;97237.22;4950866;28;20098;-65
2021/11/20 02:18:36;;;;;;;56.10;24.42;;;5.10;89.10;;;3.27;100.00;97235.69;4977759;23;20050;-64
2021/11/20 02:21:35;;;;;;;63.00;24.92;;;5.00;89.20;;;3.28;100.00;97237.31;4930224;28;20816;-63
2021/11/20 02:24:01;;;;;;;64.95;26.63;;;5.10;89.20;;;3.26;100.00;97233.19;4956988;28;20027;-63
2021/11/20 02:26:26;;;;;;;59.47;25.73;;;5.00;89.30;;;3.24;100.00;97233.31;4970756;28;20027;-63
2021/11/20 02:28:54;;;;;;;61.05;26.65;;;5.00;89.40;;;3.23;100.00;97228.22;4971058;28;20038;-63
2021/11/20 02:31:20;;;;;;;59.00;26.55;;;5.00;89.40;;;3.25;100.00;97221.13;4937625;28;20035;-64
2021/11/20 02:33:47;;;;;;;60.92;28.38;;;5.10;89.00;;;3.28;100.00;97220.91;4949409;28;20070;-64
2021/11/20 02:36:15;;;;;;;58.60;26.73;;;5.10;89.00;;;3.32;100.00;97222.31;4936046;28;20046;-64
2021/11/20 02:39:07;;;;;;;56.70;26.50;;;5.20;88.60;;;3.34;100.00;97210.03;4937790;28;20034;-65
2021/11/20 02:41:34;;;;;;;53.53;25.58;;;5.20;88.30;;;3.33;100.00;97203.16;4940781;28;20035;-64
2021/11/20 02:44:01;;;;;;;55.55;26.70;;;5.20;88.30;;;3.33;100.00;97208.38;4953721;28;20030;-64
2021/11/20 02:46:30;;;;;;;53.90;26.27;;;5.10;88.30;;;3.33;100.00;97208.38;4921917;28;20027;-64
2021/11/20 02:48:55;;;;;;;51.97;25.80;;;5.10;88.20;;;3.33;100.00;97204.00;4937615;28;20038;-64
2021/11/20 02:51:28;;;;;;;55.65;25.35;;;5.10;88.10;;;3.32;100.00;97196.31;4936989;28;20085;-65
2021/11/20 02:54:22;;;;;;;52.40;25.13;;;5.10;88.30;;;3.30;100.00;97199.03;4938440;28;20034;-64
2021/11/20 02:56:53;;;;;;;59.60;27.08;;;5.10;88.50;;;3.30;100.00;97187.81;4971017;28;20528;-64
2021/11/20 02:59:18;;;;;;;62.45;27.58;;;5.10;88.40;;;3.27;100.00;97188.88;4954078;28;20034;-64
2021/11/20 03:01:44;;;;;;;52.20;25.70;;;5.10;88.40;;;3.28;100.00;97190.53;4953451;28;20136;-64
2021/11/20 03:04:12;;;;;;;57.92;27.05;;;5.10;88.50;;;3.29;100.00;97180.94;4952971;28;20749;-64
2021/11/20 03:06:38;;;;;;;52.10;26.40;;;5.10;88.20;;;3.30;100.00;97190.41;4952685;28;20058;-65
2021/11/20 03:09:05;;;;;;;51.10;25.67;;;5.10;88.20;;;3.28;100.00;97189.69;4953541;28;20410;-64
2021/11/20 03:11:31;;;;;;;48.85;24.40;;;5.10;88.10;;;3.25;100.00;97184.75;4933848;28;20079;-65
2021/11/20 03:13:57;;;;;;;54.00;25.48;;;5.00;88.10;;;3.22;100.00;97185.81;4949855;28;20039;-64
2021/11/20 03:16:23;;;;;;;51.58;24.55;;;5.00;88.20;;;3.20;100.00;97185.09;4909609;28;20046;-64
2021/11/20 03:18:49;;;;;;;53.08;25.85;;;5.00;88.10;;;3.18;100.00;97188.75;4952820;28;20121;-65
2021/11/20 03:21:16;;;;;;;57.25;25.20;;;5.00;88.20;;;3.16;100.00;97185.41;4968122;28;20122;-64
2021/11/20 03:23:48;;;;;;;48.67;24.50;;;4.90;88.00;;;3.15;100.00;97183.75;4936597;28;20059;-64
2021/11/20 03:26:14;;;;;;;51.40;24.05;;;4.90;88.20;;;3.13;100.00;97180.44;4953505;28;20122;-64
2021/11/20 03:28:40;;;;;;;48.67;23.40;;;4.90;88.10;;;3.12;100.00;97184.00;4949085;28;20116;-64
2021/11/20 03:31:06;;;;;;;47.83;22.73;;;4.90;88.10;;;3.10;100.00;97180.69;4970115;28;20431;-66
2021/11/20 03:33:32;;;;;;;51.33;22.85;;;4.90;88.10;;;3.07;100.00;97182.59;4951224;28;20089;-64
2021/11/20 03:35:58;;;;;;;46.47;21.40;;;4.90;87.90;;;3.07;100.00;97179.97;4952255;28;20110;-64
2021/11/20 03:38:24;;;;;;;45.42;21.40;;;4.90;87.90;;;3.05;100.00;97173.25;4921817;29;20043;-65
2021/11/20 03:40:50;;;;;;;47.67;21.88;;;4.80;88.00;;;3.07;100.00;97181.75;4933683;28;20055;-64
2021/11/20 03:43:16;;;;;;;43.53;21.70;;;4.90;88.10;;;3.11;100.00;97177.16;4925317;28;20127;-65
2021/11/20 03:45:42;;;;;;;43.13;20.55;;;5.00;87.70;;;3.13;100.00;97170.88;4918168;28;20082;-64
2021/11/20 03:48:07;;;;;;;41.88;20.10;;;5.00;87.70;;;3.14;100.00;97171.72;4911627;28;20040;-64
2021/11/20 03:50:33;;;;;;;38.50;18.40;;;5.00;87.50;;;3.16;100.00;97164.63;4952759;28;20727;-64
2021/11/20 03:52:59;;;;;;;36.28;18.98;;;5.10;87.60;;;3.20;100.00;97160.88;4971176;28;20027;-64
2021/11/20 03:55:31;;;;;;;36.10;19.15;;;5.10;87.40;;;3.23;100.00;97165.81;4955750;28;20133;-64
2021/11/20 03:57:57;;;;;;;37.22;19.80;;;5.30;87.20;;;3.25;100.00;97159.56;4968703;28;20087;-64
2021/11/20 04:00:26;;;;;;;37.50;19.40;;;5.30;87.00;;;3.28;100.00;97159.31;4936519;28;20549;-64
2021/11/20 04:02:51;;;;;;;38.92;18.25;;;5.30;86.90;;;3.30;100.00;97156.59;4936692;28;20063;-64
2021/11/20 04:05:19;;;;;;;39.78;20.15;;;5.30;87.10;;;3.33;100.00;97151.16;4921438;28;20429;-64
2021/11/20 04:07:44;;;;;;;41.13;20.70;;;5.30;86.80;;;3.34;100.00;97158.00;4928906;28;20031;-64
2021/11/20 04:10:10;;;;;;;40.38;20.58;;;5.40;86.80;;;3.36;100.00;97156.94;4972005;28;20105;-65
2021/11/20 04:12:37;;;;;;;41.17;20.20;;;5.40;86.70;;;3.38;100.00;97159.44;4955617;28;20034;-64
2021/11/20 04:15:04;;;;;;;36.97;19.58;;;5.40;86.80;;;3.40;100.00;97161.94;4956359;28;20544;-64
2021/11/20 04:17:30;;;;;;;41.08;21.42;;;5.40;86.70;;;3.40;100.00;97154.97;4939827;28;20035;-65
2021/11/20 04:19:56;;;;;;;37.10;19.13;;;5.40;86.50;;;3.35;100.00;97147.50;4956029;28;20050;-64
2021/11/20 04:22:22;;;;;;;41.83;20.63;;;5.20;86.80;;;3.31;100.00;97137.44;4910919;29;20038;-64
2021/11/20 04:24:47;;;;;;;39.97;20.75;;;5.10;87.20;;;3.28;100.00;97137.69;4972086;28;20043;-64
2021/11/20 04:27:13;;;;;;;41.03;20.40;;;5.10;87.50;;;3.24;100.00;97141.47;4954661;28;20478;-65
2021/11/20 04:29:39;;;;;;;42.20;20.13;;;5.00;87.70;;;3.21;100.00;97142.53;4952147;28;20126;-64
2021/11/20 04:32:05;;;;;;;39.13;19.63;;;5.00;88.00;;;3.21;100.00;97142.53;4936018;28;20554;-63
2021/11/20 04:34:32;;;;;;;38.65;19.33;;;5.10;87.80;;;3.21;100.00;97142.53;4921871;28;20050;-62
2021/11/20 04:36:58;;;;;;;39.40;19.63;;;5.10;87.80;;;3.22;100.00;97144.19;4954466;28;20813;-65
2021/11/20 04:39:24;;;;;;;40.85;20.33;;;5.10;87.80;;;3.25;100.00;97143.13;4961831;28;20043;-69
2021/11/20 04:41:49;;;;;;;40.03;19.35;;;5.30;87.60;;;3.31;100.00;97147.84;4955205;28;20027;-64
2021/11/20 04:44:15;;;;;;;38.08;19.13;;;5.30;87.30;;;3.33;100.00;97146.78;4938078;28;20038;-63
2021/11/20 04:46:41;;;;;;;38.17;19.98;;;5.40;87.00;;;3.35;100.00;97144.91;4971202;28;20413;-64
2021/11/20 04:49:07;;;;;;;36.50;18.65;;;5.30;87.10;;;3.34;100.00;97148.44;4939009;28;20062;-65
2021/11/20 04:51:33;;;;;;;36.47;19.60;;;5.30;87.00;;;3.35;100.00;97139.69;4926162;28;20035;-64
2021/11/20 04:53:58;;;;;;;35.53;18.55;;;5.40;87.10;;;3.38;100.00;97136.03;4949983;28;20026;-63
2021/11/20 04:56:26;;;;;;;40.13;20.20;;;5.40;87.10;;;3.43;100.00;97135.69;4973686;28;20046;-63
2021/11/20 04:58:52;;;;;;;36.22;19.42;;;5.50;86.90;;;3.44;100.00;97132.97;4954975;28;20043;-63
2021/11/20 05:01:21;;;;;;;33.80;18.48;;;5.50;86.80;;;3.48;100.00;97138.75;4971273;28;20027;-63
2021/11/20 05:03:48;;;;;;;35.72;19.02;;;5.50;86.70;;;3.50;100.00;97142.06;4954480;28;20089;-63
2021/11/20 05:06:16;;;;;;;39.03;20.05;;;5.60;86.60;;;3.52;100.00;97135.78;4957701;28;20530;-63
2021/11/20 05:08:42;;;;;;;32.58;18.38;;;5.60;86.60;;;3.54;100.00;97135.66;4955254;28;20085;-63
2021/11/20 05:11:07;;;;;;;37.80;18.92;;;5.60;86.70;;;3.56;100.00;97132.00;4954167;28;20039;-64
2021/11/20 05:13:33;;;;;;;34.92;17.67;;;5.60;86.70;;;3.59;100.00;97136.94;4970138;28;20117;-63
2021/11/20 05:15:59;;;;;;;32.20;18.42;;;5.60;86.60;;;3.61;100.00;97124.66;4954429;28;20023;-63
2021/11/20 05:18:25;;;;;;;33.50;18.25;;;5.70;86.50;;;3.62;100.00;97128.06;4970761;28;20027;-63
2021/11/20 05:20:51;;;;;;;33.90;19.33;;;5.70;86.50;;;3.64;100.00;97118.41;4936895;28;20042;-64
2021/11/20 05:23:17;;;;;;;35.25;18.05;;;5.70;86.30;;;3.66;100.00;97122.53;4938583;28;20026;-64
2021/11/20 05:25:44;;;;;;;31.65;17.88;;;5.80;86.40;;;3.68;100.00;97123.25;4954776;28;20054;-63
2021/11/20 05:28:10;;;;;;;32.50;18.67;;;5.80;86.30;;;3.68;100.00;97115.44;4931012;28;20514;-64
2021/11/20 05:30:38;;;;;;;34.75;19.30;;;5.70;86.20;;;3.72;100.00;97121.22;4963518;28;20039;-68
2021/11/20 05:33:31;;;;;;;35.35;18.88;;;5.80;86.20;;;3.73;100.00;97116.84;4954318;28;20049;-66
2021/11/20 05:35:57;;;;;;;32.80;18.38;;;5.80;86.20;;;3.72;100.00;97115.19;4954851;28;20127;-66
2021/11/20 05:38:23;;;;;;;35.38;18.13;;;5.70;86.10;;;3.70;100.00;97110.09;4939005;28;20038;-66
2021/11/20 05:40:49;;;;;;;35.53;19.40;;;5.70;86.40;;;3.71;100.00;97110.94;4931055;28;20484;-66
2021/11/20 05:43:17;;;;;;;34.60;18.42;;;5.70;86.40;;;3.72;100.00;97112.59;4950942;28;20525;-66
2021/11/20 05:45:49;;;;;;;32.33;19.13;;;5.70;86.10;;;3.72;100.00;97107.38;4935758;28;20030;-66
2021/11/20 05:48:15;;;;;;;37.13;20.17;;;5.80;86.30;;;3.71;100.00;97110.94;4936205;28;20589;-66
2021/11/20 05:50:41;;;;;;;34.30;19.98;;;5.70;86.20;;;3.66;100.00;97104.31;4919838;28;20083;-66
2021/11/20 05:53:15;;;;;;;32.28;18.60;;;5.60;86.50;;;3.64;100.00;97108.81;4959189;28;20058;-68
2021/11/20 05:55:41;;;;;;;37.08;20.30;;;5.50;86.70;;;3.61;100.00;97098.63;4975097;28;20473;-66
2021/11/20 05:58:07;;;;;;;37.15;20.40;;;5.50;86.90;;;3.61;100.00;97098.63;4973880;28;20038;-66
2021/11/20 06:00:35;;;;;;;36.20;20.25;;;5.50;87.00;;;3.59;100.00;97104.91;4968642;28;20613;-66
2021/11/20 06:03:01;;;;;;;33.22;18.67;;;5.40;87.10;;;3.58;100.00;97093.69;4954338;28;20026;-66
2021/11/20 06:05:28;;;;;;;37.78;20.23;;;5.40;87.20;;;3.54;100.00;97096.66;4954014;28;20084;-67
2021/11/20 06:07:53;;;;;;;38.38;20.10;;;5.40;87.30;;;3.54;100.00;97089.66;4922473;28;20047;-66
2021/11/20 06:10:19;;;;;;;38.03;21.58;;;5.40;87.30;;;3.53;100.00;97090.63;4954052;28;20109;-66
2021/11/20 06:12:45;;;;;;;36.10;20.65;;;5.40;87.40;;;3.55;100.00;97093.91;4955023;28;20496;-66
2021/11/20 06:15:11;;;;;;;32.58;18.38;;;5.50;87.30;;;3.55;100.00;97096.53;4937857;28;20022;-66
2021/11/20 06:17:37;;;;;;;33.03;20.05;;;5.50;87.30;;;3.56;100.00;97095.56;4954172;28;20030;-66
2021/11/20 06:20:04;;;;;;;30.38;18.83;;;5.60;87.20;;;3.58;100.00;97098.06;4954484;28;20106;-66
2021/11/20 06:22:30;;;;;;;31.13;18.77;;;5.60;87.10;;;3.61;100.00;97105.59;4937751;28;20039;-66
2021/11/20 06:24:57;;;;;;;32.17;18.75;;;5.60;86.90;;;3.62;100.00;97104.66;4971437;28;20035;-66
2021/11/20 06:27:24;;;;;;;32.65;19.05;;;5.60;86.90;;;3.62;100.00;97105.53;4969456;28;20031;-66
2021/11/20 06:29:50;;;;;;;27.83;18.00;;;5.70;86.80;;;3.65;100.00;97113.09;4938089;28;20522;-66
2021/11/20 06:32:15;;;;;;;30.55;17.73;;;5.70;86.80;;;3.67;100.00;97111.19;4952895;28;20070;-66
2021/11/20 06:34:41;;;;;;;33.67;18.55;;;5.70;86.80;;;3.68;100.00;97106.81;4953726;28;20124;-66
2021/11/20 06:37:07;;;;;;;32.40;19.20;;;5.70;86.70;;;3.67;100.00;97105.97;4937664;28;20125;-66
2021/11/20 06:39:34;;;;;;;28.67;18.33;;;5.70;86.50;;;3.67;100.00;97103.38;4953099;28;20135;-66
2021/11/20 06:42:04;;;;;;;31.35;18.95;;;5.60;86.60;;;3.68;100.00;97106.81;4953902;28;20031;-66
2021/11/20 06:44:30;;;;;;;32.38;20.58;;;5.70;86.80;;;3.71;100.00;97101.34;4954063;28;20107;-66
2021/11/20 06:46:57;;;;;;;28.80;19.52;;;5.70;86.60;;;3.73;100.00;97101.22;4970022;28;20058;-66
2021/11/20 06:49:23;;;;;;;31.90;19.90;;;5.70;86.60;;;3.75;100.00;97094.94;4952965;28;20442;-67
2021/11/20 06:51:48;;;;;;;29.98;18.88;;;5.80;86.50;;;3.77;100.00;97103.47;4969364;28;20066;-66
2021/11/20 06:54:14;;;;;;;27.13;18.50;;;5.90;86.40;;;3.78;100.00;97102.50;4966165;28;20470;-66
2021/11/20 06:56:43;;;;;;;33.25;19.45;;;5.90;86.20;;;3.78;100.00;97105.09;4956841;28;20066;-66
2021/11/20 07:00:25;;;;;;;29.52;18.20;;;5.80;86.20;;;3.79;100.00;97101.56;4941825;28;20053;-66
2021/11/20 07:02:02;;;;;;;29.42;17.35;;;5.90;86.30;;;3.80;100.00;97102.38;4971582;28;20146;-66
2021/11/20 07:04:28;;;;;;;28.83;19.13;;;5.80;86.40;;;3.83;100.00;97102.13;4936991;28;20066;-66
2021/11/20 07:07:09;;;;;;;29.88;18.05;;;5.90;86.40;;;3.85;100.00;97097.66;4937224;28;20035;-66
2021/11/20 07:09:35;;;;;;;27.97;17.47;;;5.90;86.20;;;3.88;100.00;97105.22;4954935;28;20494;-66
2021/11/20 07:12:02;;;;;;;26.10;17.55;;;6.00;85.80;;;3.90;100.00;97098.94;4953681;28;20110;-66
2021/11/20 07:14:27;;;;;;;26.25;17.23;;;6.10;85.90;;;3.96;100.00;97102.81;4968701;28;20027;-66
2021/11/20 07:16:53;;;;;;;25.98;17.58;;;6.10;85.70;;;3.99;100.00;97102.56;4967578;28;20046;-67
2021/11/20 07:19:19;;;;;;;28.02;17.17;;;6.10;85.60;;;4.03;100.00;97103.97;4951126;28;20431;-67
2021/11/20 07:21:48;;;;;;;27.17;17.55;;;6.20;85.60;;;4.07;100.00;97115.78;4927802;28;20107;-66
2021/11/20 07:24:18;;;;;;;28.35;17.92;;;6.20;85.20;;;4.11;100.00;97117.22;4953635;28;20470;-66
2021/11/20 07:26:44;;;;;;;25.00;17.23;;;6.30;85.10;;;4.14;100.00;97111.75;4937515;28;20544;-66
2021/11/20 07:29:10;;;;;;;29.02;18.83;;;6.30;85.00;;;4.18;100.00;97112.31;4937114;28;20035;-66
2021/11/20 07:31:36;;;;;;;27.27;17.95;;;6.40;85.00;;;4.20;100.00;97116.47;4934048;28;20118;-65
2021/11/20 07:34:02;;;;;;;27.52;18.75;;;6.40;84.70;;;4.25;100.00;97109.09;4968470;28;20057;-73
2021/11/20 07:36:28;;;;;;;24.88;18.02;;;6.50;84.80;;;4.28;100.00;97118.44;4955336;28;20557;-68
2021/11/20 07:38:57;;;;;;;29.95;18.45;;;6.50;84.50;;;4.30;100.00;97112.16;4933928;28;20038;-67
2021/11/20 07:41:28;;;;;;;29.55;22.10;;;6.50;84.70;;;4.35;100.00;97108.34;4940864;28;20510;-68
2021/11/20 07:43:54;;;;;;;28.05;20.38;;;6.60;84.90;;;4.39;100.00;97104.53;4956921;28;20174;-69
2021/11/20 07:46:20;;;;;;;28.48;18.85;;;6.60;84.70;;;4.41;100.00;97105.25;4956330;28;20610;-69
2021/11/20 07:48:46;;;;;;;31.20;19.75;;;6.60;84.20;;;4.43;100.00;97098.13;4956353;28;20053;-65
2021/11/20 07:51:13;;;;;;;32.55;23.52;;;6.60;84.00;;;4.46;100.00;97096.09;4972642;28;20039;-68
2021/11/20 07:53:39;;;;;;;33.20;22.75;;;6.60;84.40;;;4.47;100.00;97092.53;4960079;28;20415;-66
2021/11/20 07:56:05;;;;;;;29.60;19.30;;;6.70;84.20;;;4.51;100.00;97098.31;4956113;28;20626;-65
2021/11/20 07:58:31;;;;;;;27.83;19.48;;;6.70;84.30;;;4.54;100.00;97090.25;4972128;28;20038;-66
2021/11/20 08:00:57;;;;;;;27.25;18.70;;;6.80;84.40;;;4.58;100.00;97083.84;4972511;28;20035;-67
2021/11/20 08:03:23;;;;;;;29.90;19.95;;;6.80;84.10;;;4.60;100.00;97082.75;4920714;28;20444;-67
2021/11/20 08:05:49;;;;;;;30.00;20.35;;;6.80;83.80;;;4.64;100.00;97075.50;4944333;28;20118;-69
2021/11/20 08:08:15;;;;;;;30.38;19.33;;;6.80;83.80;;;4.66;100.00;97075.38;4923514;28;20027;-68
2021/11/20 08:10:42;;;;;;;27.70;20.35;;;6.80;83.80;;;4.67;100.00;97074.41;4952850;28;20552;-69
2021/11/20 08:13:07;;;;;;;24.65;16.95;;;6.80;83.90;;;4.69;100.00;97065.50;4936697;28;20379;-69
2021/11/20 08:15:33;;;;;;;26.30;18.23;;;6.80;83.60;;;4.69;99.70;97068.13;4939633;28;20030;-67
2021/11/20 08:18:00;;;;;;;22.85;16.58;;;6.90;83.50;;;4.73;99.68;97064.28;4954313;28;20069;-68
2021/11/20 08:20:29;;;;;;;29.27;22.33;;;7.00;83.60;;;4.79;100.00;97055.97;4940386;28;20039;-69
2021/11/20 08:22:54;;;;;;;27.95;18.48;;;7.10;83.40;;;4.83;99.36;97062.59;4935018;28;20030;-64
2021/11/20 08:25:24;;;;;;;25.08;17.65;;;7.10;83.30;;;4.86;99.94;97057.09;4955466;28;20097;-63
2021/11/20 08:27:50;;;;;;;20.08;15.65;;;7.10;83.10;;;4.89;99.82;97056.84;4955163;28;20037;-63
2021/11/20 08:30:17;;;;;;;20.25;16.45;;;7.10;83.00;;;4.93;98.90;97042.59;4924331;28;20031;-64
2021/11/20 08:32:45;;;;;;;19.85;15.23;;;7.20;82.80;;;4.99;99.49;97050.88;4938452;28;20434;-64
2021/11/20 08:35:11;;;;;;;18.30;15.10;;;7.20;82.40;;;5.01;98.98;97048.94;4955719;28;20118;-63
2021/11/20 08:37:37;;;;;;;18.95;14.93;;;7.20;82.10;;;5.04;98.13;97053.91;4971704;28;20046;-63
2021/11/20 08:40:06;;;;;;;19.63;14.43;;;7.10;82.00;;;5.04;97.96;97048.69;4939515;28;20163;-62
2021/11/20 08:42:34;;;;;;;20.75;15.02;;;7.20;82.40;;;5.08;97.72;97039.63;4955581;28;20558;-63
2021/11/20 08:45:02;;;;;;;19.63;15.50;;;7.30;82.40;;;5.11;98.74;97034.16;4972236;28;20038;-63
2021/11/20 08:47:28;;;;;;;18.70;14.23;;;7.40;82.50;;;5.15;97.59;97038.13;4923904;28;20042;-63
2021/11/20 08:49:53;;;;;;;20.23;16.40;;;7.30;82.00;;;5.18;97.60;97030.03;4955860;28;20038;-62
2021/11/20 08:52:19;;;;;;;18.35;14.05;;;7.30;82.60;;;5.20;97.55;97030.75;4955581;28;20490;-63
2021/11/20 08:54:45;;;;;;;18.85;15.05;;;7.30;82.00;;;5.20;97.94;97033.34;4944848;28;20533;-63
2021/11/20 08:57:11;;;;;;;24.83;15.32;;;7.30;82.30;;;5.27;97.38;97031.06;4920413;28;20063;-62
2021/11/20 08:59:38;;;;;;;19.45;15.25;;;7.40;82.40;;;5.32;98.07;97026.25;4936374;28;20035;-63
2021/11/20 09:02:52;;;;;;;18.88;15.25;;;7.60;82.30;;;5.41;97.25;97026.25;4921150;29;20031;-64
2021/11/20 09:05:31;;;;;;;17.60;14.00;;;7.60;82.00;;;5.45;97.81;97016.41;4951398;28;20045;-63
2021/11/20 09:08:07;;;;;;;18.33;14.45;;;7.80;81.80;;;5.51;97.67;97014.09;4906563;29;20028;-63
2021/11/20 09:10:43;;;;;;;18.98;15.02;;;7.80;82.10;;;5.60;98.15;97009.00;4952377;28;20460;-64
2021/11/20 09:13:25;;;;;;;20.73;14.65;;;7.90;81.80;;;5.69;98.47;96997.75;4941605;28;20041;-64
2021/11/20 09:16:05;;;;;;;17.55;14.68;;;8.10;81.80;;;5.76;97.28;97004.06;4955901;28;20050;-63
2021/11/20 09:18:31;;;;;;;17.63;14.82;;;8.10;81.80;;;5.84;97.49;97012.03;4956413;28;20452;-64
2021/11/20 09:20:57;;;;;;;21.02;15.75;;;8.20;81.20;;;5.91;97.31;97004.53;4939397;28;20454;-64
2021/11/20 09:23:23;;;;;;;19.67;14.80;;;8.20;81.00;;;5.94;96.90;97002.47;4970133;28;20031;-63
2021/11/20 09:25:49;;;;;;;18.58;15.48;;;8.20;80.50;;;5.99;96.60;97005.47;4937695;28;20033;-63
2021/11/20 09:28:16;;;;;;;29.02;24.83;;;8.20;80.90;;;6.02;96.82;97005.19;4935855;28;20491;-63
2021/11/20 09:30:46;;;;;;;34.10;27.83;;;8.20;80.40;;;6.05;95.59;96998.88;4938664;28;20181;-63
2021/11/20 09:33:13;;;;;;;20.80;15.75;;;8.20;80.40;;;6.05;95.46;97004.09;4938639;28;20400;-62
2021/11/20 09:35:40;;;;;;;18.75;15.77;;;8.20;80.20;;;6.09;95.27;97001.06;4938420;28;20117;-62
2021/11/20 09:38:05;;;;;;;19.10;15.25;;;8.30;80.20;;;6.12;95.92;97000.81;4931424;28;20410;-62
2021/11/20 09:40:34;;;;;;;20.02;15.90;;;8.30;80.40;;;6.17;95.48;96996.94;4928634;28;20035;-62
2021/11/20 09:43:01;;;;;;;18.13;15.02;;;8.40;80.10;;;6.19;95.77;97001.06;4967531;28;20501;-62
2021/11/20 09:45:35;;;;;;;19.60;15.98;;;8.50;80.20;;;6.24;94.86;96995.41;4957393;28;20066;-63
2021/11/20 09:48:18;;;;;;;24.70;18.55;;;8.40;79.80;;;6.27;94.71;96992.53;4963251;28;20506;-63
2021/11/20 09:51:18;;;;;;;21.50;16.73;;;8.40;80.20;;;6.28;95.20;96988.94;4939010;28;20043;-65
2021/11/20 09:53:44;;;;;;;22.00;16.48;;;8.50;80.00;;;6.27;95.22;96988.13;4949176;28;20037;-66
2021/11/20 09:56:14;;;;;;;23.95;16.77;;;8.50;79.80;;;6.31;94.77;96983.44;4954126;28;20027;-64
2021/11/20 09:58:44;;;;;;;62.63;48.70;;;8.50;80.00;;;6.35;95.11;96984.81;4933442;28;20032;-63
2021/11/20 10:01:40;;;;;;;47.53;35.08;;;8.60;80.00;;;6.40;95.11;96977.38;4930509;28;20122;-62
2021/11/20 10:04:19;;;;;;;28.80;21.00;;;8.70;79.80;;;6.45;95.07;96980.38;4959131;28;20066;-62
2021/11/20 10:07:11;;;;;;;25.20;17.95;;;8.70;79.60;;;6.49;95.15;96976.53;4940047;28;20035;-62
2021/11/20 10:09:45;;;;;;;21.00;16.70;;;8.80;79.50;;;6.56;95.43;96974.97;4941294;28;20034;-63
2021/11/20 10:12:25;;;;;;;21.67;16.08;;;8.90;79.80;;;6.65;94.75;96971.53;4938489;28;20038;-63
2021/11/20 10:15:06;;;;;;;20.77;15.65;;;9.00;79.20;;;6.70;94.55;96969.31;4968849;28;20045;-63
2021/11/20 10:17:35;;;;;;;20.98;16.92;;;9.10;79.00;;;6.79;94.94;96964.16;4966768;28;20407;-63
2021/11/20 10:20:17;;;;;;;28.63;22.90;;;9.20;79.00;;;6.86;94.20;96958.22;4955528;28;20035;-64
2021/11/20 10:23:07;;;;;;;;;;;9.30;78.80;;;6.87;93.91;96956.44;4970063;28;20030;-64
2021/11/20 10:26:15;;;;;;;16.80;13.37;;;9.30;78.30;;;6.93;93.42;96953.25;4968962;28;20344;-63
2021/11/20 10:29:21;;;;;;;15.40;12.93;;;9.30;78.00;;;6.96;93.00;96942.47;4946243;28;20034;-64